createdAt,value
2022-10-11T00:05:15.066Z,4.18
2022-10-11T00:10:30.228Z,4.25
2022-10-11T00:15:46.229Z,4.85
2022-10-11T00:21:09.244Z,3.58
2022-10-11T00:26:24.831Z,4.82
2022-10-11T00:31:40.574Z,4.15
2022-10-11T00:36:56.444Z,5.38
2022-10-11T00:42:15.886Z,5.57
2022-10-11T00:47:31.244Z,5.05
2022-10-11T00:52:53.376Z,5.32
2022-10-11T00:58:53.353Z,4.53
2022-10-11T01:04:09.663Z,5.13
2022-10-11T01:09:26.905Z,4.65
2022-10-11T01:14:59.766Z,5.15
2022-10-11T01:20:32.546Z,3.85
2022-10-11T01:26:15.598Z,4.82
2022-10-11T01:31:30.219Z,5.45
2022-10-11T01:37:01.367Z,4.47
2022-10-11T01:42:18.935Z,4.43
2022-10-11T01:47:33.555Z,4.53
2022-10-11T01:52:48.187Z,3.83
2022-10-11T01:58:24.998Z,3.80
2022-10-11T02:03:52.574Z,4.82
2022-10-11T02:09:17.324Z,4.38
2022-10-11T02:14:37.234Z,3.47
2022-10-11T02:19:57.690Z,4.20
2022-10-11T02:25:22.922Z,5.10
2022-10-11T02:30:42.218Z,5.70
2022-10-11T02:36:03.262Z,4.55
2022-10-11T02:41:32.683Z,4.15
2022-10-11T02:46:50.376Z,4.00
2022-10-11T02:52:06.847Z,3.65
2022-10-11T02:57:22.816Z,5.15
2022-10-11T03:02:37.334Z,4.47
2022-10-11T03:07:52.787Z,4.22
2022-10-11T03:13:07.511Z,4.57
2022-10-11T03:18:22.834Z,3.92
2022-10-11T03:23:38.835Z,3.92
2022-10-11T03:28:53.129Z,4.63
2022-10-11T03:34:10.120Z,4.40
2022-10-11T03:39:26.060Z,3.47
2022-10-11T03:44:39.527Z,4.20
2022-10-11T03:49:55.401Z,5.35
2022-10-11T03:55:11.993Z,4.78
2022-10-11T04:00:28.764Z,3.60
2022-10-11T04:05:43.728Z,4.95
2022-10-11T04:11:16.085Z,3.23
2022-10-11T04:16:32.927Z,3.70
2022-10-11T04:21:46.916Z,3.17
2022-10-11T04:27:01.911Z,3.10
2022-10-11T04:32:16.798Z,2.95
2022-10-11T04:37:31.841Z,4.22
2022-10-11T04:42:45.355Z,3.35
2022-10-11T04:48:01.223Z,2.63
2022-10-11T04:53:17.067Z,3.50
2022-10-11T04:58:34.241Z,3.10
2022-10-11T05:03:50.204Z,4.50
2022-10-11T05:09:05.358Z,3.20
2022-10-11T05:14:18.547Z,3.28
2022-10-11T05:19:34.573Z,2.88
2022-10-11T05:24:50.029Z,3.65
2022-10-11T05:30:05.447Z,3.97
2022-10-11T05:35:22.695Z,2.65
2022-10-11T05:40:40.819Z,2.95
2022-10-11T05:45:58.291Z,2.80
2022-10-11T05:51:12.694Z,4.32
2022-10-11T05:56:28.045Z,2.97
2022-10-11T06:01:41.660Z,4.20
2022-10-11T06:06:55.947Z,2.80
2022-10-11T06:12:10.025Z,3.40
2022-10-11T06:17:47.634Z,2.92
2022-10-11T06:23:21.039Z,2.80
2022-10-11T06:29:02.171Z,3.30
2022-10-11T06:34:34.169Z,3.40
2022-10-11T06:40:06.633Z,3.63
2022-10-11T06:45:35.834Z,3.30
2022-10-11T06:51:08.887Z,4.50
2022-10-11T06:56:41.062Z,2.85
2022-10-11T07:02:10.744Z,3.05
2022-10-11T07:07:40.830Z,3.25
2022-10-11T07:12:54.444Z,2.50
2022-10-11T07:18:09.191Z,3.58
2022-10-11T07:23:38.334Z,4.78
2022-10-11T07:29:09.060Z,3.33
2022-10-11T07:34:38.006Z,3.22
2022-10-11T07:40:11.531Z,4.55
2022-10-11T07:45:41.372Z,4.15
2022-10-11T07:51:13.946Z,3.95
2022-10-11T08:02:26.883Z,3.45
2022-10-11T08:13:46.162Z,3.95
2022-10-11T08:24:46.883Z,4.00
2022-10-11T08:30:00.150Z,4.65
2022-10-11T08:41:21.807Z,3.33
2022-10-11T08:46:39.180Z,4.83
2022-10-11T08:52:21.884Z,3.30
2022-10-11T08:57:39.162Z,5.03
2022-10-11T09:03:11.251Z,4.45
2022-10-11T09:09:02.773Z,4.82
2022-10-11T09:14:43.430Z,3.22
2022-10-11T09:20:09.848Z,4.25
2022-10-11T09:25:39.767Z,4.05
2022-10-11T09:31:01.212Z,3.70
2022-10-11T09:36:36.577Z,3.67
2022-10-11T09:42:09.677Z,4.45
2022-10-11T09:47:34.153Z,4.97
2022-10-11T09:53:02.042Z,4.38
2022-10-11T09:58:30.562Z,4.22
2022-10-11T10:04:12.202Z,4.30
2022-10-11T10:09:33.580Z,4.18
2022-10-11T10:15:17.806Z,3.95
2022-10-11T10:20:39.160Z,4.85
2022-10-11T10:26:20.483Z,3.97
2022-10-11T10:32:13.363Z,4.45
2022-10-11T10:37:36.441Z,5.70
2022-10-11T10:42:58.243Z,5.75
2022-10-11T10:48:26.037Z,6.80
2022-10-11T10:53:57.789Z,6.88
2022-10-11T10:59:51.801Z,7.93
2022-10-11T11:05:31.553Z,6.43
2022-10-11T11:11:20.081Z,6.95
2022-10-11T11:16:50.258Z,5.70
2022-10-11T11:22:20.528Z,8.27
2022-10-11T11:27:59.880Z,8.70
2022-10-11T11:33:48.967Z,7.82
2022-10-11T11:39:17.615Z,7.35
2022-10-11T11:44:43.209Z,7.93
2022-10-11T11:50:22.610Z,8.40
2022-10-11T11:55:49.399Z,9.85
2022-10-11T12:01:31.566Z,8.82
2022-10-11T12:07:15.415Z,9.10
2022-10-11T12:12:38.360Z,8.32
2022-10-11T12:18:01.264Z,9.13
2022-10-11T12:23:29.134Z,10.18
2022-10-11T12:29:28.246Z,7.18
2022-10-11T12:34:50.335Z,8.75
2022-10-11T12:40:47.215Z,7.50
2022-10-11T12:46:30.005Z,9.95
2022-10-11T12:52:12.834Z,7.15
2022-10-11T12:58:19.399Z,6.75
2022-10-11T13:03:44.424Z,7.18
2022-10-11T13:09:33.273Z,8.13
2022-10-11T13:15:05.571Z,7.97
2022-10-11T13:20:31.943Z,6.25
2022-10-11T13:25:54.290Z,6.93
2022-10-11T13:31:15.649Z,8.02
2022-10-11T13:36:36.761Z,8.38
2022-10-11T13:41:59.810Z,6.85
2022-10-11T13:47:27.014Z,8.68
2022-10-11T13:52:53.116Z,7.63
2022-10-11T13:58:25.979Z,7.38
2022-10-11T14:03:53.773Z,6.75
2022-10-11T14:09:37.273Z,7.95
2022-10-11T14:15:03.169Z,8.20
2022-10-11T14:20:40.031Z,6.70
2022-10-11T14:26:01.673Z,7.55
2022-10-11T14:31:23.751Z,7.32
2022-10-11T14:36:44.880Z,7.32
2022-10-11T14:42:06.467Z,5.85
2022-10-11T14:47:27.963Z,7.35
2022-10-11T14:52:49.394Z,7.40
2022-10-11T14:58:18.172Z,6.65
2022-10-11T15:03:39.925Z,5.18
2022-10-11T15:09:01.482Z,5.43
2022-10-11T15:14:25.302Z,6.93
2022-10-11T15:19:46.738Z,7.38
2022-10-11T15:25:08.352Z,6.05
2022-10-11T15:30:38.448Z,6.32
2022-10-11T15:36:02.481Z,5.05
2022-10-11T15:41:24.216Z,6.00
2022-10-11T15:46:46.173Z,7.55
2022-10-11T15:52:07.493Z,7.13
2022-10-11T15:57:28.921Z,6.85
2022-10-11T16:02:54.706Z,6.85
2022-10-11T16:08:16.229Z,6.38
2022-10-11T16:13:37.507Z,9.95
2022-10-11T16:18:58.874Z,8.38
2022-10-11T16:24:20.231Z,8.65
2022-10-11T16:29:41.766Z,7.90
2022-10-11T16:35:02.899Z,7.97
2022-10-11T16:40:26.808Z,7.68
2022-10-11T16:45:48.568Z,6.85
2022-10-11T16:51:09.860Z,6.88
2022-10-11T16:56:37.335Z,8.13
2022-10-11T17:02:01.119Z,6.05
2022-10-11T17:07:23.551Z,7.95
2022-10-11T17:12:49.883Z,7.30
2022-10-11T17:18:11.242Z,6.95
2022-10-11T17:23:34.289Z,8.52
2022-10-11T17:29:00.553Z,9.02
2022-10-11T17:34:22.366Z,7.45
2022-10-11T17:39:43.802Z,8.93
2022-10-11T17:45:05.363Z,11.90
2022-10-11T17:50:26.684Z,10.00
2022-10-11T17:55:50.510Z,9.02
2022-10-11T18:01:15.457Z,9.07
2022-10-11T18:06:39.691Z,9.23
2022-10-11T18:12:01.284Z,9.63
2022-10-11T18:17:22.878Z,7.72
2022-10-11T18:22:44.050Z,8.65
2022-10-11T18:28:05.697Z,8.18
2022-10-11T18:33:27.233Z,8.27
2022-10-11T18:38:52.762Z,7.88
2022-10-11T18:44:15.872Z,9.75
2022-10-11T18:49:37.044Z,8.70
2022-10-11T18:54:58.780Z,6.78
2022-10-11T19:00:39.603Z,8.57
2022-10-11T19:06:12.860Z,6.82
2022-10-11T19:11:34.377Z,6.13
2022-10-11T19:16:56.644Z,8.43
2022-10-11T19:22:18.175Z,7.57
2022-10-11T19:27:39.600Z,7.22
2022-10-11T19:33:01.329Z,5.97
2022-10-11T19:38:22.744Z,7.47
2022-10-11T19:43:44.351Z,7.70
2022-10-11T19:49:06.158Z,6.80
2022-10-11T19:54:27.530Z,8.75
2022-10-11T19:59:48.813Z,8.25
2022-10-11T20:05:10.389Z,8.73
2022-10-11T20:10:31.556Z,8.02
2022-10-11T20:16:02.693Z,5.97
2022-10-11T20:21:24.852Z,8.57
2022-10-11T20:26:46.003Z,6.57
2022-10-11T20:32:07.242Z,6.45
2022-10-11T20:37:28.751Z,5.03
2022-10-11T20:42:50.304Z,7.68
2022-10-11T20:48:12.087Z,6.32
2022-10-11T20:53:35.511Z,5.38
2022-10-11T20:58:58.355Z,5.47
2022-10-11T21:04:20.770Z,4.35
2022-10-11T21:09:42.312Z,4.30
2022-10-11T21:15:04.046Z,5.07
2022-10-11T21:20:25.562Z,4.30
2022-10-11T21:25:47.046Z,4.50
2022-10-11T21:31:17.865Z,3.85
2022-10-11T21:36:39.079Z,3.65
2022-10-11T21:42:00.398Z,4.07
2022-10-11T21:47:21.569Z,3.90
2022-10-11T21:52:43.046Z,2.97
2022-10-11T21:58:06.576Z,4.20
2022-10-11T22:03:28.230Z,4.55
2022-10-11T22:08:50.164Z,4.05
2022-10-11T22:14:11.714Z,3.67
2022-10-11T22:19:33.184Z,4.68
2022-10-11T22:24:54.386Z,3.85
2022-10-11T22:30:15.682Z,4.10
2022-10-11T22:35:38.115Z,3.97
2022-10-11T22:40:59.357Z,4.93
2022-10-11T22:46:20.482Z,3.15
2022-10-11T22:51:41.955Z,4.53
2022-10-11T22:57:03.079Z,3.38
2022-10-11T23:02:24.454Z,3.60
2022-10-11T23:07:49.579Z,3.97
2022-10-11T23:13:10.633Z,4.28
2022-10-11T23:18:31.872Z,4.68
2022-10-11T23:23:54.533Z,4.60
2022-10-11T23:29:15.831Z,3.72
2022-10-11T23:34:37.747Z,4.15
2022-10-11T23:39:58.822Z,4.03
2022-10-11T23:45:20.084Z,3.33
2022-10-11T23:50:42.528Z,4.03
2022-10-11T23:56:04.950Z,3.13
